createdAt,value
2017-11-25T00:02:05.512Z,66.30
2017-11-25T00:04:35.018Z,66.40
2017-11-25T00:07:04.523Z,66.30
2017-11-25T00:09:33.417Z,66.30
2017-11-25T00:12:02.099Z,66.30
2017-11-25T00:14:30.987Z,66.70
2017-11-25T00:16:59.880Z,66.60
2017-11-25T00:19:28.565Z,64.20
2017-11-25T00:21:57.259Z,62.80
2017-11-25T00:24:26.087Z,62.40
2017-11-25T00:26:55.052Z,62.20
2017-11-25T00:29:23.925Z,62.10
2017-11-25T00:31:52.619Z,62.00
2017-11-25T00:34:22.345Z,61.10
2017-11-25T00:36:51.212Z,61.10
2017-11-25T00:39:19.902Z,61.30
2017-11-25T00:41:48.583Z,61.70
2017-11-25T00:44:17.273Z,62.10
2017-11-25T00:46:46.170Z,61.70
2017-11-25T00:49:15.678Z,62.00
2017-11-25T00:51:44.352Z,61.90
2017-11-25T00:54:13.257Z,61.90
2017-11-25T00:56:42.341Z,62.10
2017-11-25T00:59:11.025Z,62.30
2017-11-25T01:01:39.919Z,62.20
2017-11-25T01:04:08.609Z,62.60
2017-11-25T01:06:37.292Z,62.30
2017-11-25T01:09:06.183Z,62.60
2017-11-25T01:11:35.072Z,62.50
2017-11-25T01:14:04.599Z,62.50
2017-11-25T01:16:33.470Z,62.40
2017-11-25T01:19:02.374Z,62.90
2017-11-25T01:21:31.263Z,62.80
2017-11-25T01:24:00.345Z,62.80
2017-11-25T01:26:29.235Z,62.60
2017-11-25T01:28:57.924Z,62.40
2017-11-25T01:31:26.814Z,62.50
2017-11-25T01:33:55.643Z,62.50
2017-11-25T01:36:24.598Z,62.30
2017-11-25T01:38:53.486Z,62.30
2017-11-25T01:41:22.177Z,62.20
2017-11-25T01:43:51.071Z,62.30
2017-11-25T01:46:19.971Z,62.70
2017-11-25T01:48:49.673Z,63.20
2017-11-25T01:51:18.458Z,63.20
2017-11-25T01:53:47.352Z,63.60
2017-11-25T01:56:16.444Z,63.90
2017-11-25T01:58:45.539Z,64.20
2017-11-25T02:01:14.917Z,64.50
2017-11-25T02:03:45.207Z,65.60
2017-11-25T02:06:19.416Z,64.80
2017-11-25T02:08:50.201Z,64.30
2017-11-25T02:11:19.592Z,65.20
2017-11-25T02:13:50.046Z,65.00
2017-11-25T02:16:18.949Z,66.20
2017-11-25T02:18:48.142Z,65.30
2017-11-25T02:21:17.373Z,65.60
2017-11-25T02:23:46.965Z,65.90
2017-11-25T02:26:18.519Z,65.40
2017-11-25T02:28:54.060Z,64.50
2017-11-25T02:31:24.271Z,64.70
2017-11-25T02:33:53.376Z,64.60
2017-11-25T02:36:22.673Z,65.10
2017-11-25T02:38:51.655Z,65.10
2017-11-25T02:41:20.511Z,64.30
2017-11-25T02:43:50.458Z,63.80
2017-11-25T02:46:19.355Z,63.80
2017-11-25T02:48:48.344Z,63.80
2017-11-25T02:51:17.441Z,64.30
2017-11-25T02:53:47.122Z,64.00
2017-11-25T02:56:17.168Z,64.30
2017-11-25T02:58:46.490Z,64.20
2017-11-25T03:01:17.408Z,63.70
2017-11-25T03:03:54.707Z,64.20
2017-11-25T03:06:29.948Z,63.90
2017-11-25T03:09:12.365Z,64.10
2017-11-25T03:11:44.898Z,64.40
2017-11-25T03:14:14.190Z,64.40
2017-11-25T03:16:43.122Z,64.50
2017-11-25T03:19:13.209Z,64.50
2017-11-25T03:21:45.314Z,64.40
2017-11-25T03:24:14.912Z,64.50
2017-11-25T03:26:44.621Z,64.90
2017-11-25T03:29:15.048Z,65.10
2017-11-25T03:31:51.476Z,65.50
2017-11-25T03:34:28.115Z,65.30
2017-11-25T03:37:16.228Z,65.50
2017-11-25T03:40:00.188Z,65.70
2017-11-25T03:42:34.504Z,65.60
2017-11-25T03:45:04.063Z,66.10
2017-11-25T03:47:34.513Z,66.00
2017-11-25T03:50:11.575Z,66.40
2017-11-25T03:52:44.900Z,66.20
2017-11-25T03:55:15.373Z,66.60
2017-11-25T03:57:46.734Z,66.90
2017-11-25T04:00:16.919Z,67.10
2017-11-25T04:02:59.339Z,67.00
2017-11-25T04:05:33.490Z,67.10
2017-11-25T04:08:04.808Z,66.80
2017-11-25T04:10:33.978Z,66.70
2017-11-25T04:13:02.987Z,67.00
2017-11-25T04:15:33.181Z,67.40
2017-11-25T04:18:02.793Z,66.60
2017-11-25T04:20:33.021Z,66.90
2017-11-25T04:23:02.434Z,66.70
2017-11-25T04:25:33.745Z,66.80
2017-11-25T04:28:08.508Z,66.90
2017-11-25T04:30:45.419Z,68.00
2017-11-25T04:33:20.538Z,67.60
2017-11-25T04:35:54.025Z,67.80
2017-11-25T04:38:27.829Z,67.80
2017-11-25T04:40:59.573Z,67.90
2017-11-25T04:43:31.449Z,68.00
2017-11-25T04:46:09.004Z,68.30
2017-11-25T04:48:46.456Z,68.40
2017-11-25T04:51:22.016Z,68.50
2017-11-25T04:53:58.506Z,68.80
2017-11-25T04:56:35.950Z,69.10
2017-11-25T04:59:11.368Z,69.20
2017-11-25T05:01:40.267Z,69.20
2017-11-25T05:04:09.153Z,69.50
2017-11-25T05:06:38.531Z,69.60
2017-11-25T05:09:16.261Z,69.60
2017-11-25T05:11:51.041Z,69.70
2017-11-25T05:14:25.401Z,69.90
2017-11-25T05:16:54.290Z,69.90
2017-11-25T05:19:23.598Z,70.10
2017-11-25T05:21:52.691Z,70.10
2017-11-25T05:24:23.629Z,70.30
2017-11-25T05:26:57.742Z,70.20
2017-11-25T05:29:45.727Z,70.30
2017-11-25T05:32:14.929Z,70.60
2017-11-25T05:34:57.314Z,70.70
2017-11-25T05:37:26.736Z,70.60
2017-11-25T05:39:55.476Z,70.80
2017-11-25T05:42:24.367Z,70.80
2017-11-25T05:44:54.804Z,70.50
2017-11-25T05:47:25.195Z,70.40
2017-11-25T05:50:01.812Z,70.00
2017-11-25T05:52:37.374Z,69.90
2017-11-25T05:55:10.734Z,69.90
2017-11-25T05:57:39.629Z,70.00
2017-11-25T06:00:08.312Z,70.30
2017-11-25T06:02:39.653Z,70.60
2017-11-25T06:05:09.478Z,70.70
2017-11-25T06:07:38.370Z,70.80
2017-11-25T06:10:07.048Z,70.70
2017-11-25T06:12:35.743Z,70.10
2017-11-25T06:15:05.064Z,67.90
2017-11-25T06:17:34.988Z,67.40
2017-11-25T06:20:04.361Z,66.40
2017-11-25T06:22:34.270Z,66.50
2017-11-25T06:25:02.957Z,66.40
2017-11-25T06:27:34.128Z,66.30
2017-11-25T06:30:03.505Z,65.30
2017-11-25T06:32:32.417Z,64.90
2017-11-25T06:35:03.964Z,63.60
2017-11-25T06:37:33.118Z,62.60
2017-11-25T06:40:06.050Z,61.90
2017-11-25T06:42:35.457Z,60.30
2017-11-25T06:45:06.381Z,59.70
2017-11-25T06:47:37.225Z,60.40
2017-11-25T06:50:08.047Z,60.20
2017-11-25T06:52:37.141Z,62.10
2017-11-25T06:55:05.833Z,62.90
2017-11-25T06:57:34.665Z,63.20
2017-11-25T07:00:04.184Z,63.70
2017-11-25T07:02:39.028Z,64.20
2017-11-25T07:05:08.049Z,64.30
2017-11-25T07:07:36.735Z,64.40
2017-11-25T07:10:05.525Z,64.30
2017-11-25T07:12:34.209Z,64.20
2017-11-25T07:15:03.003Z,63.80
2017-11-25T07:17:31.889Z,63.90
2017-11-25T07:20:00.782Z,63.90
2017-11-25T07:22:29.466Z,63.60
2017-11-25T07:24:58.361Z,62.40
2017-11-25T07:27:27.252Z,62.00
2017-11-25T07:29:56.254Z,62.10
2017-11-25T07:32:25.037Z,61.80
2017-11-25T07:34:53.924Z,61.90
2017-11-25T07:37:22.812Z,62.10
2017-11-25T07:39:52.205Z,61.90
2017-11-25T07:42:21.314Z,61.90
2017-11-25T07:44:50.216Z,61.70
2017-11-25T07:47:19.914Z,61.80
2017-11-25T07:49:49.625Z,62.10
2017-11-25T07:52:18.519Z,61.90
2017-11-25T07:54:47.411Z,62.30
2017-11-25T07:57:16.296Z,61.90
2017-11-25T07:59:45.129Z,61.80
2017-11-25T08:02:14.897Z,61.90
2017-11-25T08:04:44.606Z,62.10
2017-11-25T08:07:13.917Z,62.20
2017-11-25T08:09:42.801Z,61.90
2017-11-25T08:12:11.694Z,61.80
2017-11-25T08:14:40.384Z,62.40
2017-11-25T08:17:09.274Z,62.20
2017-11-25T08:19:38.290Z,62.10
2017-11-25T08:22:07.250Z,62.00
2017-11-25T08:24:35.940Z,62.00
2017-11-25T08:27:05.869Z,62.10
2017-11-25T08:29:34.732Z,62.00
2017-11-25T08:32:03.648Z,62.00
2017-11-25T08:34:32.528Z,62.00
2017-11-25T08:37:01.359Z,62.20
2017-11-25T08:39:30.175Z,62.00
2017-11-25T08:41:59.315Z,61.90
2017-11-25T08:44:28.203Z,62.00
2017-11-25T08:46:57.088Z,61.60
2017-11-25T08:49:26.821Z,61.20
2017-11-25T08:51:56.488Z,61.40
2017-11-25T08:54:25.321Z,61.00
2017-11-25T08:56:54.292Z,60.40
2017-11-25T08:59:23.182Z,60.70
2017-11-25T09:01:51.866Z,60.70
2017-11-25T09:04:21.374Z,60.40
2017-11-25T09:06:50.058Z,60.20
2017-11-25T09:09:18.718Z,60.50
2017-11-25T09:11:47.436Z,60.20
2017-11-25T09:14:16.302Z,60.30
2017-11-25T09:16:45.012Z,60.00
2017-11-25T09:19:14.104Z,60.50
2017-11-25T09:21:42.998Z,60.70
2017-11-25T09:24:11.678Z,60.60
2017-11-25T09:26:40.574Z,60.90
2017-11-25T09:29:09.485Z,59.90
2017-11-25T09:31:38.363Z,59.90
2017-11-25T09:34:07.253Z,60.00
2017-11-25T09:36:37.469Z,60.00
2017-11-25T09:39:06.365Z,60.00
2017-11-25T09:41:35.253Z,60.20
2017-11-25T09:44:04.143Z,59.90
2017-11-25T09:46:33.033Z,59.80
2017-11-25T09:49:01.923Z,59.40
2017-11-25T09:51:30.814Z,57.30
2017-11-25T09:53:59.915Z,57.20
2017-11-25T09:56:28.701Z,56.90
2017-11-25T09:58:57.423Z,57.00
2017-11-25T10:01:26.318Z,57.10
2017-11-25T10:03:55.299Z,57.20
2017-11-25T10:06:24.772Z,57.60
2017-11-25T10:08:53.665Z,57.50
2017-11-25T10:11:22.350Z,57.50
2017-11-25T10:13:51.140Z,57.70
2017-11-25T10:16:19.809Z,57.80
2017-11-25T10:18:48.789Z,57.90
2017-11-25T10:21:17.767Z,58.00
2017-11-25T10:23:46.710Z,58.40
2017-11-25T10:26:15.390Z,58.90
2017-11-25T10:28:44.181Z,59.00
2017-11-25T10:31:13.067Z,59.40
2017-11-25T10:33:41.973Z,59.40
2017-11-25T10:36:10.850Z,59.70
2017-11-25T10:38:39.742Z,59.50
2017-11-25T10:41:08.441Z,59.90
2017-11-25T10:43:37.323Z,60.00
2017-11-25T10:46:06.081Z,60.40
2017-11-25T10:48:34.904Z,60.30
2017-11-25T10:51:03.992Z,60.70
2017-11-25T10:53:32.891Z,60.80
2017-11-25T10:56:01.772Z,60.90
2017-11-25T10:58:30.778Z,60.90
2017-11-25T11:01:00.229Z,61.10
2017-11-25T11:03:29.879Z,60.90
2017-11-25T11:05:58.670Z,61.20
2017-11-25T11:08:27.458Z,61.20
2017-11-25T11:10:57.166Z,60.90
2017-11-25T11:13:26.058Z,61.00
2017-11-25T11:15:54.953Z,60.90
2017-11-25T11:18:23.843Z,60.80
2017-11-25T11:20:52.630Z,61.10
2017-11-25T11:23:21.521Z,61.00
2017-11-25T11:25:50.213Z,61.30
2017-11-25T11:28:18.892Z,61.00
2017-11-25T11:30:48.821Z,61.40
2017-11-25T11:33:17.702Z,60.80
2017-11-25T11:35:46.395Z,60.80
2017-11-25T11:38:15.231Z,60.40
2017-11-25T11:40:43.972Z,60.50
2017-11-25T11:43:12.652Z,61.00
2017-11-25T11:45:41.343Z,61.00
2017-11-25T11:48:10.179Z,61.30
2017-11-25T11:50:38.923Z,61.50
2017-11-25T11:53:07.974Z,61.70
2017-11-25T11:55:36.696Z,61.80
2017-11-25T11:58:05.586Z,62.00
2017-11-25T12:00:34.484Z,62.00
2017-11-25T12:03:04.188Z,62.30
2017-11-25T12:05:33.027Z,62.20
2017-11-25T12:08:01.979Z,62.30
2017-11-25T12:10:31.024Z,62.40
2017-11-25T12:12:59.765Z,62.40
2017-11-25T12:15:28.642Z,62.60
2017-11-25T12:17:57.490Z,63.10
2017-11-25T12:20:26.936Z,63.60
2017-11-25T12:22:55.829Z,63.60
2017-11-25T12:25:24.724Z,63.70
2017-11-25T12:27:53.608Z,64.20
2017-11-25T12:30:22.502Z,64.60
2017-11-25T12:32:51.190Z,65.10
2017-11-25T12:35:19.894Z,65.10
2017-11-25T12:37:48.764Z,65.60
2017-11-25T12:40:17.454Z,65.30
2017-11-25T12:42:46.290Z,65.40
2017-11-25T12:45:15.785Z,65.70
2017-11-25T12:47:45.965Z,66.10
2017-11-25T12:50:14.820Z,66.10
2017-11-25T12:52:44.362Z,66.70
2017-11-25T12:55:14.277Z,66.60
2017-11-25T12:57:43.341Z,66.50
2017-11-25T13:00:12.268Z,66.50
2017-11-25T13:02:41.774Z,66.70
2017-11-25T13:05:10.666Z,66.70
2017-11-25T13:07:39.551Z,66.80
2017-11-25T13:10:08.176Z,66.10
2017-11-25T13:12:37.950Z,65.90
2017-11-25T13:15:06.853Z,65.40
2017-11-25T13:17:35.718Z,65.30
2017-11-25T13:20:04.628Z,64.90
2017-11-25T13:22:33.309Z,64.70
2017-11-25T13:25:02.202Z,64.10
2017-11-25T13:27:30.883Z,64.60
2017-11-25T13:29:59.774Z,64.10
2017-11-25T13:32:28.468Z,63.70
2017-11-25T13:34:57.162Z,64.00
2017-11-25T13:37:26.052Z,64.20
2017-11-25T13:39:55.092Z,63.90
2017-11-25T13:42:24.648Z,63.90
2017-11-25T13:44:53.532Z,63.90
2017-11-25T13:47:22.431Z,64.00
2017-11-25T13:49:52.134Z,63.80
2017-11-25T13:52:21.024Z,64.20
2017-11-25T13:54:49.717Z,63.70
2017-11-25T13:57:18.400Z,64.00
2017-11-25T13:59:47.187Z,64.10
2017-11-25T14:02:15.874Z,68.40
2017-11-25T14:04:44.659Z,70.30
2017-11-25T14:07:13.553Z,71.60
2017-11-25T14:09:42.307Z,72.50
2017-11-25T14:12:11.127Z,74.90
2017-11-25T14:14:40.023Z,78.60
2017-11-25T14:17:08.917Z,79.40
2017-11-25T14:19:37.808Z,80.20
2017-11-25T14:22:06.696Z,81.00
2017-11-25T14:24:35.585Z,81.10
2017-11-25T14:27:04.481Z,81.10
2017-11-25T14:29:33.987Z,81.50
2017-11-25T14:32:02.823Z,80.70
2017-11-25T14:34:31.763Z,80.20
2017-11-25T14:37:00.867Z,80.90
2017-11-25T14:39:30.378Z,81.80
2017-11-25T14:41:59.254Z,81.20
2017-11-25T14:44:28.154Z,81.30
2017-11-25T14:46:57.855Z,80.10
2017-11-25T14:49:26.484Z,80.00
2017-11-25T14:51:55.230Z,80.60
2017-11-25T14:54:24.117Z,81.00
2017-11-25T14:56:53.010Z,81.20
2017-11-25T14:59:21.798Z,81.00
2017-11-25T15:01:51.508Z,80.30
2017-11-25T15:04:21.201Z,80.80
2017-11-25T15:06:50.245Z,80.80
2017-11-25T15:09:19.198Z,81.10
2017-11-25T15:11:48.111Z,81.50
2017-11-25T15:14:17.806Z,81.70
2017-11-25T15:16:46.903Z,81.60
2017-11-25T15:19:16.612Z,81.70
2017-11-25T15:21:45.271Z,81.60
2017-11-25T15:24:13.876Z,81.60
2017-11-25T15:26:42.522Z,81.50
2017-11-25T15:29:12.544Z,80.20
2017-11-25T15:31:41.196Z,80.20
2017-11-25T15:34:10.063Z,80.30
2017-11-25T15:36:39.031Z,80.30
2017-11-25T15:39:07.855Z,80.20
2017-11-25T15:41:36.743Z,80.40
2017-11-25T15:44:06.406Z,80.40
2017-11-25T15:46:35.478Z,80.40
2017-11-25T15:49:04.228Z,80.50
2017-11-25T15:51:33.030Z,80.10
2017-11-25T15:54:02.648Z,79.40
2017-11-25T15:56:31.619Z,79.30
2017-11-25T15:59:00.717Z,79.40
2017-11-25T16:01:30.426Z,79.80
2017-11-25T16:03:59.111Z,79.70
2017-11-25T16:06:28.822Z,80.90
2017-11-25T16:08:57.607Z,80.80
2017-11-25T16:11:26.502Z,81.00
2017-11-25T16:13:56.212Z,80.70
2017-11-25T16:16:25.100Z,80.60
2017-11-25T16:18:54.005Z,80.60
2017-11-25T16:21:24.289Z,80.60
2017-11-25T16:23:53.223Z,81.10
2017-11-25T16:26:23.755Z,80.10
2017-11-25T16:28:52.841Z,80.30
2017-11-25T16:31:22.552Z,78.80
2017-11-25T16:33:51.464Z,78.70
2017-11-25T16:36:20.327Z,78.80
2017-11-25T16:38:50.034Z,76.30
2017-11-25T16:41:19.746Z,76.20
2017-11-25T16:43:48.746Z,76.20
2017-11-25T16:46:17.627Z,77.10
2017-11-25T16:48:46.651Z,80.80
2017-11-25T16:51:16.350Z,82.30
2017-11-25T16:53:45.227Z,81.80
2017-11-25T16:56:13.926Z,81.90
2017-11-25T16:58:43.156Z,82.20
2017-11-25T17:01:11.900Z,82.20
2017-11-25T17:03:41.157Z,82.30
2017-11-25T17:06:10.312Z,82.20
2017-11-25T17:08:39.608Z,82.40
2017-11-25T17:11:10.198Z,82.80
2017-11-25T17:13:39.159Z,82.60
2017-11-25T17:16:08.665Z,82.70
2017-11-25T17:18:37.690Z,82.60
2017-11-25T17:21:07.007Z,82.70
2017-11-25T17:23:36.749Z,83.10
2017-11-25T17:26:05.730Z,83.20
2017-11-25T17:28:34.411Z,83.40
2017-11-25T17:31:03.111Z,83.80
2017-11-25T17:33:32.733Z,84.20
2017-11-25T17:36:01.597Z,84.20
2017-11-25T17:38:30.603Z,82.90
2017-11-25T17:40:59.485Z,82.20
2017-11-25T17:43:28.375Z,82.60
2017-11-25T17:45:57.362Z,81.80
2017-11-25T17:48:26.256Z,81.80
2017-11-25T17:50:55.351Z,81.80
2017-11-25T17:53:23.976Z,82.00
2017-11-25T17:55:53.134Z,82.10
2017-11-25T17:58:21.817Z,82.60
2017-11-25T18:00:51.051Z,83.00
2017-11-25T18:03:20.009Z,82.90
2017-11-25T18:05:48.703Z,83.40
2017-11-25T18:08:17.488Z,84.10
2017-11-25T18:10:46.378Z,84.50
2017-11-25T18:13:15.329Z,84.40
2017-11-25T18:15:44.280Z,84.60
2017-11-25T18:18:13.583Z,84.80
2017-11-25T18:20:43.474Z,84.30
2017-11-25T18:23:12.176Z,84.20
2017-11-25T18:25:41.373Z,84.30
2017-11-25T18:28:11.261Z,84.50
2017-11-25T18:30:40.190Z,84.40
2017-11-25T18:33:09.671Z,84.40
2017-11-25T18:35:38.582Z,84.30
2017-11-25T18:38:07.554Z,84.30
2017-11-25T18:40:37.060Z,84.50
2017-11-25T18:43:05.753Z,84.60
2017-11-25T18:45:34.806Z,84.20
2017-11-25T18:48:03.898Z,84.60
2017-11-25T18:50:33.160Z,84.40
2017-11-25T18:53:02.026Z,84.40
2017-11-25T18:55:30.922Z,84.70
2017-11-25T18:57:59.813Z,84.00
2017-11-25T19:00:28.652Z,84.10
2017-11-25T19:02:57.591Z,84.70
2017-11-25T19:05:26.483Z,85.10
2017-11-25T19:07:55.583Z,85.60
2017-11-25T19:10:24.475Z,85.70
2017-11-25T19:12:53.361Z,85.70
2017-11-25T19:15:22.251Z,86.30
2017-11-25T19:17:51.464Z,87.20
2017-11-25T19:20:21.373Z,87.40
2017-11-25T19:22:51.226Z,87.30
2017-11-25T19:25:19.903Z,87.20
2017-11-25T19:27:48.866Z,87.10
2017-11-25T19:30:17.760Z,87.70
2017-11-25T19:32:46.579Z,86.90
2017-11-25T19:35:16.144Z,87.70
2017-11-25T19:37:44.833Z,87.50
2017-11-25T19:40:13.527Z,88.00
2017-11-25T19:42:42.204Z,89.30
2017-11-25T19:45:11.104Z,90.50
2017-11-25T19:47:39.882Z,91.30
2017-11-25T19:50:08.774Z,92.80
2017-11-25T19:52:38.483Z,93.30
2017-11-25T19:55:07.093Z,93.30
2017-11-25T19:57:36.061Z,93.30
2017-11-25T20:00:04.746Z,93.20
2017-11-25T20:02:33.637Z,92.80
2017-11-25T20:05:02.529Z,93.10
2017-11-25T20:07:31.423Z,92.60
2017-11-25T20:10:01.334Z,92.70
2017-11-25T20:12:29.980Z,92.60
2017-11-25T20:14:58.709Z,92.10
2017-11-25T20:17:27.395Z,92.40
2017-11-25T20:19:56.289Z,92.20
2017-11-25T20:22:25.176Z,92.60
2017-11-25T20:24:53.875Z,92.20
2017-11-25T20:27:22.569Z,92.20
2017-11-25T20:29:51.443Z,92.10
2017-11-25T20:32:20.332Z,91.60
2017-11-25T20:34:49.017Z,91.90
2017-11-25T20:37:17.703Z,92.00
2017-11-25T20:39:46.389Z,93.00
2017-11-25T20:42:15.078Z,90.10
2017-11-25T20:44:43.764Z,85.90
2017-11-25T20:47:12.447Z,80.10
2017-11-25T20:49:41.953Z,77.00
2017-11-25T20:52:10.805Z,76.90
2017-11-25T20:54:39.740Z,75.40
2017-11-25T20:57:08.429Z,70.40
2017-11-25T20:59:37.270Z,68.80
2017-11-25T21:02:06.006Z,70.00
2017-11-25T21:04:34.683Z,71.00
2017-11-25T21:07:03.576Z,70.20
2017-11-25T21:09:32.446Z,71.30
2017-11-25T21:12:01.158Z,69.20
2017-11-25T21:14:30.046Z,69.50
2017-11-25T21:16:58.731Z,67.90
2017-11-25T21:19:27.836Z,69.70
2017-11-25T21:21:56.717Z,68.50
2017-11-25T21:24:25.615Z,68.50
2017-11-25T21:26:54.497Z,68.40
2017-11-25T21:29:23.190Z,66.30
2017-11-25T21:31:52.696Z,68.70
2017-11-25T21:34:21.585Z,68.60
2017-11-25T21:36:50.486Z,68.70
2017-11-25T21:39:19.465Z,65.90
2017-11-25T21:41:48.258Z,64.70
2017-11-25T21:44:16.950Z,65.80
2017-11-25T21:46:45.676Z,67.30
2017-11-25T21:49:15.138Z,61.70
2017-11-25T21:51:44.023Z,61.70
2017-11-25T21:54:12.709Z,64.90
2017-11-25T21:56:41.603Z,62.00
2017-11-25T21:59:10.490Z,61.60
2017-11-25T22:01:39.288Z,62.20
2017-11-25T22:04:07.969Z,62.70
2017-11-25T22:06:36.859Z,60.40
2017-11-25T22:09:05.686Z,60.40
2017-11-25T22:11:34.437Z,61.50
2017-11-25T22:14:03.125Z,58.50
2017-11-25T22:16:32.018Z,59.80
2017-11-25T22:19:00.904Z,60.60
2017-11-25T22:21:29.798Z,59.20
2017-11-25T22:23:58.481Z,59.80
2017-11-25T22:26:27.168Z,59.50
2017-11-25T22:28:56.061Z,58.80
2017-11-25T22:31:24.745Z,58.50
2017-11-25T22:33:53.431Z,57.40
2017-11-25T22:36:22.119Z,56.80
2017-11-25T22:38:50.904Z,57.00
2017-11-25T22:41:19.590Z,56.80
2017-11-25T22:43:48.299Z,57.10
2017-11-25T22:46:17.168Z,56.80
2017-11-25T22:48:45.853Z,57.10
2017-11-25T22:51:14.540Z,57.30
2017-11-25T22:53:43.226Z,56.80
2017-11-25T22:56:12.119Z,56.90
2017-11-25T22:58:41.010Z,56.30
2017-11-25T23:01:09.906Z,56.80
2017-11-25T23:03:38.789Z,55.90
2017-11-25T23:06:11.478Z,55.40
2017-11-25T23:08:40.160Z,55.50
2017-11-25T23:11:08.844Z,55.40
2017-11-25T23:13:37.735Z,55.30
2017-11-25T23:16:06.436Z,55.30
2017-11-25T23:18:35.105Z,55.80
2017-11-25T23:21:03.996Z,55.70
2017-11-25T23:23:32.891Z,55.80
2017-11-25T23:26:02.600Z,56.00
2017-11-25T23:28:31.492Z,55.80
2017-11-25T23:31:00.180Z,56.30
2017-11-25T23:33:29.070Z,56.20
2017-11-25T23:35:57.982Z,56.30
2017-11-25T23:38:27.468Z,55.80
2017-11-25T23:40:57.175Z,55.80
2017-11-25T23:43:25.965Z,56.10
2017-11-25T23:45:54.859Z,56.10
2017-11-25T23:48:23.541Z,55.90
2017-11-25T23:50:52.434Z,55.80
2017-11-25T23:53:21.123Z,56.80
2017-11-25T23:55:49.746Z,56.60
2017-11-25T23:58:18.907Z,55.10
